Detall de PIREP

Printer-friendly versionPDF version

[2009/01/02 21:58:00]
Flight IATA:CT3114
Pilot Number:011
Company ICAO:CAT
Aircraft Type:B738/F
PAX:160
Departing Airport: LEBL
Destination Airport: LEVC
Alternate Airport:LEPA
Online: VATSIM
Route:LOTOS B28 SOPET
Flight Level:FL210
No Slew and time accel
No pause
Crash detect
Detect pilot in Cockpit between each 30 and 45 minutes
21:58 Zero fuel Weight: 137300 Lbs, Fuel Weight: 10939 Lbs
21:58 VATSIM:LEBL 022130Z 33006KT 260V030 9999 SCT010 BKN025 09/06 Q1016 NOSIG
21:58 VATSIM:LEVC 022130Z 35004KT 8000 FEW015 SCT025 10/09 Q1017 NOSIG
21:58 Parking Brakes off
22:13 Take-off
22:13 Take off Weight: 147206 Lbs
22:13 Wind: 321 @ 006 Knots Heading: 246
22:13 POS N41 18 00 E002 05 15
22:13 Flaps:4 at 181 Knots
22:13 Gear Up: 187 Knots
22:14 Flaps:3 at 230 Knots
22:15 Flaps:2 at 233 Knots
22:15 Flaps:1 at 236 Knots
22:15 Flaps:0 at 236 Knots
22:24 TOC
22:2
4 Fuel Weight: 7665 Lb
22:28 Wind:009@010 Knots Heading: 228 Ground Speed: 398 Knots Altitude 21108 ft
22:30 TOD
22:30 Fuel Weight: 7031 Lb
22:43 Wind:297@005 Knots Heading: 031 Ground Speed: 236 Knots Altitude 3497 ft
22:44 Flaps:1 at 218 Knots
22:45 Flaps:2 at 218 Knots
22:45 Flaps:3 at 205 Knots
22:45 Flaps:4 at 197 Knots
22:46 Flaps:5 at 189 Knots
22:47 Flaps:6 at 178 Knots
22:47 Gear Down: 174 Knots
22:47 Flaps:7 at 164 Knots
22:48 Flaps:8 at 153 Knots
22:50 TouchDown:Rate -219 ft/min Speed: 124 Knots
22:50 VATSIM:LEVC 022230Z 30003KT 7000 FEW015 SCT025 09/08 Q1017 NOSIG
22:50 Land
22:50 Wind:303@003 Knots
22:50 Heading: 296
22:50 Flight Duration: 00:37
22:50 Landing Weight: 143248 Lbs
22:50 POS N39 29 26 W000 29 06
22:56 Parking brakes on
22:56 Block to Block Duration: 00:58
22:56 Final Fuel: 5462 Lbls
22:56 Spent Fuel: 5476 Lbl
s
22:56 Flight Length: 188 NM
22:56 TOD Land Length: 95 NM

Exportar CSV

Powered by Drupal - Modified by Danger4k